sensor_id;sensor_type;location;lat;lon;timestamp;pressure;altitude;pressure_sealevel;temperature;humidity
63306;BME280;50735;52.060;1.248;2023-05-07T00:02:25;101183.54;;;12.15;62.94
63306;BME280;50735;52.060;1.248;2023-05-07T00:04:56;101178.16;;;12.35;63.26
63306;BME280;50735;52.060;1.248;2023-05-07T00:07:29;101178.15;;;12.52;63.43
63306;BME280;50735;52.060;1.248;2023-05-07T00:10:01;101178.30;;;12.50;63.42
63306;BME280;50735;52.060;1.248;2023-05-07T00:12:33;101174.81;;;12.01;63.92
63306;BME280;50735;52.060;1.248;2023-05-07T00:15:06;101175.63;;;12.48;63.53
63306;BME280;50735;52.060;1.248;2023-05-07T00:17:38;101175.65;;;12.12;64.40
63306;BME280;50735;52.060;1.248;2023-05-07T00:20:10;101174.80;;;11.98;64.99
63306;BME280;50735;52.060;1.248;2023-05-07T00:22:42;101172.91;;;11.87;64.43
63306;BME280;50735;52.060;1.248;2023-05-07T00:25:14;101173.54;;;12.14;64.25
63306;BME280;50735;52.060;1.248;2023-05-07T00:27:46;101173.71;;;11.82;64.55
63306;BME280;50735;52.060;1.248;2023-05-07T00:30:18;101170.07;;;11.73;64.92
63306;BME280;50735;52.060;1.248;2023-05-07T00:32:50;101172.26;;;12.03;64.81
63306;BME280;50735;52.060;1.248;2023-05-07T00:35:21;101171.17;;;12.33;64.36
63306;BME280;50735;52.060;1.248;2023-05-07T00:37:53;101175.97;;;11.92;64.09
63306;BME280;50735;52.060;1.248;2023-05-07T00:40:25;101174.86;;;12.03;64.54
63306;BME280;50735;52.060;1.248;2023-05-07T00:42:57;101175.75;;;12.45;63.97
63306;BME280;50735;52.060;1.248;2023-05-07T00:45:29;101176.28;;;12.09;63.84
63306;BME280;50735;52.060;1.248;2023-05-07T00:48:02;101177.06;;;11.99;64.08
63306;BME280;50735;52.060;1.248;2023-05-07T00:50:35;101179.61;;;12.00;64.11
63306;BME280;50735;52.060;1.248;2023-05-07T00:53:07;101174.36;;;12.00;64.96
63306;BME280;50735;52.060;1.248;2023-05-07T00:55:39;101178.56;;;12.32;64.76
63306;BME280;50735;52.060;1.248;2023-05-07T00:58:11;101176.96;;;12.01;64.35
63306;BME280;50735;52.060;1.248;2023-05-07T01:00:43;101173.99;;;12.54;63.73
63306;BME280;50735;52.060;1.248;2023-05-07T01:03:15;101175.96;;;12.00;64.32
63306;BME280;50735;52.060;1.248;2023-05-07T01:05:47;101172.79;;;12.11;64.34
63306;BME280;50735;52.060;1.248;2023-05-07T01:08:20;101171.70;;;12.39;63.82
63306;BME280;50735;52.060;1.248;2023-05-07T01:10:54;101172.92;;;12.45;63.70
63306;BME280;50735;52.060;1.248;2023-05-07T01:13:27;101170.60;;;12.29;63.34
63306;BME280;50735;52.060;1.248;2023-05-07T01:15:59;101171.59;;;12.50;63.66
63306;BME280;50735;52.060;1.248;2023-05-07T01:18:31;101174.12;;;12.39;63.14
63306;BME280;50735;52.060;1.248;2023-05-07T01:21:04;101171.38;;;12.38;63.04
63306;BME280;50735;52.060;1.248;2023-05-07T01:23:37;101172.23;;;12.86;62.77
63306;BME280;50735;52.060;1.248;2023-05-07T01:26:09;101173.80;;;12.47;62.97
63306;BME280;50735;52.060;1.248;2023-05-07T01:28:41;101173.89;;;12.64;62.96
63306;BME280;50735;52.060;1.248;2023-05-07T01:31:13;101171.49;;;12.32;63.41
63306;BME280;50735;52.060;1.248;2023-05-07T01:33:48;101167.71;;;12.26;63.52
63306;BME280;50735;52.060;1.248;2023-05-07T01:36:22;101167.96;;;12.33;63.51
63306;BME280;50735;52.060;1.248;2023-05-07T01:38:55;101166.09;;;12.67;63.08
63306;BME280;50735;52.060;1.248;2023-05-07T01:41:27;101167.49;;;12.58;62.81
63306;BME280;50735;52.060;1.248;2023-05-07T01:43:59;101167.58;;;12.59;62.85
63306;BME280;50735;52.060;1.248;2023-05-07T01:46:32;101167.31;;;12.70;62.58
63306;BME280;50735;52.060;1.248;2023-05-07T01:49:04;101167.25;;;13.12;62.46
63306;BME280;50735;52.060;1.248;2023-05-07T01:51:36;101169.07;;;13.15;62.25
63306;BME280;50735;52.060;1.248;2023-05-07T01:54:08;101167.20;;;12.80;62.26
63306;BME280;50735;52.060;1.248;2023-05-07T01:56:40;101169.29;;;12.86;62.13
63306;BME280;50735;52.060;1.248;2023-05-07T01:59:12;101170.94;;;12.93;62.02
63306;BME280;50735;52.060;1.248;2023-05-07T02:01:44;101167.38;;;13.36;62.10
63306;BME280;50735;52.060;1.248;2023-05-07T02:04:16;101164.25;;;13.01;61.91
63306;BME280;50735;52.060;1.248;2023-05-07T02:06:48;101165.97;;;13.46;61.84
63306;BME280;50735;52.060;1.248;2023-05-07T02:09:20;101164.18;;;13.14;61.64
63306;BME280;50735;52.060;1.248;2023-05-07T02:11:52;101164.49;;;13.16;61.54
63306;BME280;50735;52.060;1.248;2023-05-07T02:14:24;101167.56;;;13.19;61.58
63306;BME280;50735;52.060;1.248;2023-05-07T02:16:56;101170.28;;;13.20;61.46
63306;BME280;50735;52.060;1.248;2023-05-07T02:19:28;101166.84;;;13.19;61.32
63306;BME280;50735;52.060;1.248;2023-05-07T02:22:00;101163.32;;;13.23;61.48
63306;BME280;50735;52.060;1.248;2023-05-07T02:24:32;101163.74;;;13.30;61.45
63306;BME280;50735;52.060;1.248;2023-05-07T02:27:04;101169.16;;;13.30;61.42
63306;BME280;50735;52.060;1.248;2023-05-07T02:29:36;101168.53;;;13.33;61.44
63306;BME280;50735;52.060;1.248;2023-05-07T02:32:07;101170.09;;;13.38;61.42
63306;BME280;50735;52.060;1.248;2023-05-07T02:34:39;101172.03;;;13.42;61.38
63306;BME280;50735;52.060;1.248;2023-05-07T02:37:11;101173.44;;;13.44;61.39
63306;BME280;50735;52.060;1.248;2023-05-07T02:39:43;101170.02;;;13.47;61.41
63306;BME280;50735;52.060;1.248;2023-05-07T02:42:15;101174.60;;;13.51;61.26
63306;BME280;50735;52.060;1.248;2023-05-07T02:44:47;101176.23;;;13.52;61.24
63306;BME280;50735;52.060;1.248;2023-05-07T02:47:18;101175.59;;;13.54;61.20
63306;BME280;50735;52.060;1.248;2023-05-07T02:49:50;101174.26;;;13.57;61.08
63306;BME280;50735;52.060;1.248;2023-05-07T02:52:22;101174.72;;;13.56;61.02
63306;BME280;50735;52.060;1.248;2023-05-07T02:54:54;101178.39;;;13.57;61.07
63306;BME280;50735;52.060;1.248;2023-05-07T02:57:26;101176.73;;;13.57;61.10
63306;BME280;50735;52.060;1.248;2023-05-07T02:59:58;101177.34;;;13.58;61.07
63306;BME280;50735;52.060;1.248;2023-05-07T03:02:30;101179.28;;;13.59;60.91
63306;BME280;50735;52.060;1.248;2023-05-07T03:05:03;101179.94;;;13.58;60.86
63306;BME280;50735;52.060;1.248;2023-05-07T03:07:35;101176.30;;;13.58;60.81
63306;BME280;50735;52.060;1.248;2023-05-07T03:10:07;101178.67;;;13.58;60.73
63306;BME280;50735;52.060;1.248;2023-05-07T03:12:39;101174.44;;;13.38;60.73
63306;BME280;50735;52.060;1.248;2023-05-07T03:15:11;101174.55;;;13.55;60.72
63306;BME280;50735;52.060;1.248;2023-05-07T03:17:43;101176.11;;;13.52;60.78
63306;BME280;50735;52.060;1.248;2023-05-07T03:20:15;101175.44;;;13.52;60.83
63306;BME280;50735;52.060;1.248;2023-05-07T03:22:47;101172.34;;;13.55;60.62
63306;BME280;50735;52.060;1.248;2023-05-07T03:25:19;101169.08;;;13.52;60.61
63306;BME280;50735;52.060;1.248;2023-05-07T03:27:51;101164.26;;;13.50;60.57
63306;BME280;50735;52.060;1.248;2023-05-07T03:30:23;101162.29;;;13.49;60.63
63306;BME280;50735;52.060;1.248;2023-05-07T03:32:55;101164.33;;;13.46;60.61
63306;BME280;50735;52.060;1.248;2023-05-07T03:35:27;101165.94;;;13.45;60.53
63306;BME280;50735;52.060;1.248;2023-05-07T03:37:59;101164.36;;;13.43;60.58
63306;BME280;50735;52.060;1.248;2023-05-07T03:40:32;101164.68;;;13.41;60.64
63306;BME280;50735;52.060;1.248;2023-05-07T03:43:04;101171.55;;;13.40;60.73
63306;BME280;50735;52.060;1.248;2023-05-07T03:45:36;101177.48;;;13.39;60.77
63306;BME280;50735;52.060;1.248;2023-05-07T03:48:08;101174.56;;;13.40;60.78
63306;BME280;50735;52.060;1.248;2023-05-07T03:50:40;101175.27;;;13.41;60.74
63306;BME280;50735;52.060;1.248;2023-05-07T03:53:12;101175.96;;;13.41;60.71
63306;BME280;50735;52.060;1.248;2023-05-07T03:55:44;101177.41;;;13.41;60.73
63306;BME280;50735;52.060;1.248;2023-05-07T03:58:15;101181.63;;;13.24;60.79
63306;BME280;50735;52.060;1.248;2023-05-07T04:00:48;101186.55;;;13.44;60.45
63306;BME280;50735;52.060;1.248;2023-05-07T04:03:20;101191.50;;;13.45;60.62
63306;BME280;50735;52.060;1.248;2023-05-07T04:05:51;101189.10;;;13.45;60.69
63306;BME280;50735;52.060;1.248;2023-05-07T04:08:23;101184.51;;;13.46;60.75
63306;BME280;50735;52.060;1.248;2023-05-07T04:10:55;101187.53;;;13.29;60.66
63306;BME280;50735;52.060;1.248;2023-05-07T04:13:27;101189.03;;;13.48;60.67
63306;BME280;50735;52.060;1.248;2023-05-07T04:16:02;101193.53;;;13.48;60.74
63306;BME280;50735;52.060;1.248;2023-05-07T04:18:34;101194.20;;;13.50;60.74
63306;BME280;50735;52.060;1.248;2023-05-07T04:21:13;101194.49;;;13.51;60.68
63306;BME280;50735;52.060;1.248;2023-05-07T04:23:46;101198.00;;;13.51;60.70
63306;BME280;50735;52.060;1.248;2023-05-07T04:26:18;101204.31;;;13.72;60.69
63306;BME280;50735;52.060;1.248;2023-05-07T04:28:50;101206.24;;;13.51;60.71
63306;BME280;50735;52.060;1.248;2023-05-07T04:31:21;101205.59;;;13.50;60.69
63306;BME280;50735;52.060;1.248;2023-05-07T04:33:53;101208.76;;;13.34;60.74
63306;BME280;50735;52.060;1.248;2023-05-07T04:36:25;101210.31;;;13.51;60.74
63306;BME280;50735;52.060;1.248;2023-05-07T04:38:56;101213.42;;;13.74;60.66
63306;BME280;50735;52.060;1.248;2023-05-07T04:41:28;101212.23;;;13.51;60.62
63306;BME280;50735;52.060;1.248;2023-05-07T04:44:00;101218.55;;;13.32;60.68
63306;BME280;50735;52.060;1.248;2023-05-07T04:46:32;101215.75;;;13.50;60.68
63306;BME280;50735;52.060;1.248;2023-05-07T04:49:03;101216.55;;;13.50;60.73
63306;BME280;50735;52.060;1.248;2023-05-07T04:51:36;101221.34;;;13.56;60.69
63306;BME280;50735;52.060;1.248;2023-05-07T04:54:08;101223.45;;;13.56;60.79
63306;BME280;50735;52.060;1.248;2023-05-07T04:56:40;101226.61;;;13.59;60.68
63306;BME280;50735;52.060;1.248;2023-05-07T04:59:12;101222.43;;;13.59;60.68
63306;BME280;50735;52.060;1.248;2023-05-07T05:01:44;101225.31;;;13.60;60.59
63306;BME280;50735;52.060;1.248;2023-05-07T05:04:15;101228.16;;;13.60;60.66
63306;BME280;50735;52.060;1.248;2023-05-07T05:06:47;101230.50;;;13.42;60.55
63306;BME280;50735;52.060;1.248;2023-05-07T05:09:19;101233.38;;;13.61;60.47
63306;BME280;50735;52.060;1.248;2023-05-07T05:11:50;101233.45;;;13.42;60.69
63306;BME280;50735;52.060;1.248;2023-05-07T05:14:22;101230.50;;;13.44;60.70
63306;BME280;50735;52.060;1.248;2023-05-07T05:16:54;101236.13;;;13.66;60.45
63306;BME280;50735;52.060;1.248;2023-05-07T05:19:26;101240.20;;;13.46;60.61
63306;BME280;50735;52.060;1.248;2023-05-07T05:21:58;101241.34;;;13.66;60.63
63306;BME280;50735;52.060;1.248;2023-05-07T05:24:30;101247.06;;;13.92;60.53
63306;BME280;50735;52.060;1.248;2023-05-07T05:27:03;101251.53;;;13.53;60.62
63306;BME280;50735;52.060;1.248;2023-05-07T05:29:36;101253.44;;;13.77;60.51
63306;BME280;50735;52.060;1.248;2023-05-07T05:32:08;101255.09;;;13.77;60.57
63306;BME280;50735;52.060;1.248;2023-05-07T05:34:40;101257.74;;;13.78;60.58
63306;BME280;50735;52.060;1.248;2023-05-07T05:37:12;101260.40;;;13.79;60.60
63306;BME280;50735;52.060;1.248;2023-05-07T05:39:44;101262.16;;;13.82;60.48
63306;BME280;50735;52.060;1.248;2023-05-07T05:42:16;101264.00;;;13.65;60.51
63306;BME280;50735;52.060;1.248;2023-05-07T05:44:47;101266.36;;;13.79;60.65
63306;BME280;50735;52.060;1.248;2023-05-07T05:47:19;101270.72;;;13.82;60.64
63306;BME280;50735;52.060;1.248;2023-05-07T05:49:51;101275.71;;;13.63;60.70
63306;BME280;50735;52.060;1.248;2023-05-07T05:52:22;101275.80;;;13.62;60.67
63306;BME280;50735;52.060;1.248;2023-05-07T05:54:54;101277.46;;;13.78;60.65
63306;BME280;50735;52.060;1.248;2023-05-07T05:57:26;101278.71;;;13.81;60.74
63306;BME280;50735;52.060;1.248;2023-05-07T05:59:58;101274.59;;;13.79;60.70
63306;BME280;50735;52.060;1.248;2023-05-07T06:02:30;101268.96;;;13.70;60.33
63306;BME280;50735;52.060;1.248;2023-05-07T06:05:04;101272.00;;;13.55;60.46
63306;BME280;50735;52.060;1.248;2023-05-07T06:07:36;101275.47;;;13.08;59.76
63306;BME280;50735;52.060;1.248;2023-05-07T06:10:08;101282.47;;;13.11;60.46
63306;BME280;50735;52.060;1.248;2023-05-07T06:12:39;101286.64;;;12.98;60.46
63306;BME280;50735;52.060;1.248;2023-05-07T06:15:11;101287.86;;;13.33;60.16
63306;BME280;50735;52.060;1.248;2023-05-07T06:17:43;101281.83;;;13.61;60.01
63306;BME280;50735;52.060;1.248;2023-05-07T06:20:15;101279.78;;;13.24;59.44
63306;BME280;50735;52.060;1.248;2023-05-07T06:22:46;101279.29;;;13.31;59.25
63306;BME280;50735;52.060;1.248;2023-05-07T06:25:19;101283.54;;;13.42;58.38
63306;BME280;50735;52.060;1.248;2023-05-07T06:27:50;101286.53;;;13.38;59.00
63306;BME280;50735;52.060;1.248;2023-05-07T06:30:22;101285.11;;;13.45;58.91
63306;BME280;50735;52.060;1.248;2023-05-07T06:32:54;101286.68;;;13.47;58.99
63306;BME280;50735;52.060;1.248;2023-05-07T06:35:25;101287.22;;;13.78;58.15
63306;BME280;50735;52.060;1.248;2023-05-07T06:37:57;101291.00;;;13.68;58.00
63306;BME280;50735;52.060;1.248;2023-05-07T06:40:29;101291.18;;;13.52;58.22
63306;BME280;50735;52.060;1.248;2023-05-07T06:43:01;101292.79;;;13.79;58.29
63306;BME280;50735;52.060;1.248;2023-05-07T06:45:32;101294.41;;;13.64;58.09
63306;BME280;50735;52.060;1.248;2023-05-07T06:48:04;101294.70;;;14.04;57.98
63306;BME280;50735;52.060;1.248;2023-05-07T06:50:36;101295.80;;;13.83;56.49
63306;BME280;50735;52.060;1.248;2023-05-07T06:53:08;101299.52;;;13.86;57.30
63306;BME280;50735;52.060;1.248;2023-05-07T06:55:39;101300.12;;;14.05;57.47
63306;BME280;50735;52.060;1.248;2023-05-07T06:58:11;101295.45;;;13.96;57.71
63306;BME280;50735;52.060;1.248;2023-05-07T07:00:43;101296.06;;;13.79;57.86
63306;BME280;50735;52.060;1.248;2023-05-07T07:03:15;101294.99;;;14.05;58.22
63306;BME280;50735;52.060;1.248;2023-05-07T07:05:46;101296.47;;;13.96;58.46
63306;BME280;50735;52.060;1.248;2023-05-07T07:08:18;101299.98;;;13.77;58.77
63306;BME280;50735;52.060;1.248;2023-05-07T07:10:50;101305.31;;;14.06;58.81
63306;BME280;50735;52.060;1.248;2023-05-07T07:13:22;101309.89;;;14.07;58.65
63306;BME280;50735;52.060;1.248;2023-05-07T07:15:54;101309.35;;;13.73;58.91
63306;BME280;50735;52.060;1.248;2023-05-07T07:18:26;101310.43;;;14.00;58.52
63306;BME280;50735;52.060;1.248;2023-05-07T07:20:58;101309.50;;;14.04;58.99
63306;BME280;50735;52.060;1.248;2023-05-07T07:23:29;101310.01;;;13.85;58.78
63306;BME280;50735;52.060;1.248;2023-05-07T07:26:01;101309.01;;;14.11;58.97
63306;BME280;50735;52.060;1.248;2023-05-07T07:28:33;101310.64;;;14.12;58.90
63306;BME280;50735;52.060;1.248;2023-05-07T07:31:05;101314.87;;;14.00;59.29
63306;BME280;50735;52.060;1.248;2023-05-07T07:33:37;101318.71;;;13.97;59.07
63306;BME280;50735;52.060;1.248;2023-05-07T07:36:09;101325.33;;;14.06;58.79
63306;BME280;50735;52.060;1.248;2023-05-07T07:38:40;101329.66;;;14.07;59.01
63306;BME280;50735;52.060;1.248;2023-05-07T07:41:13;101331.06;;;14.01;58.28
63306;BME280;50735;52.060;1.248;2023-05-07T07:43:44;101330.00;;;14.04;58.78
63306;BME280;50735;52.060;1.248;2023-05-07T07:46:16;101330.64;;;13.91;59.03
63306;BME280;50735;52.060;1.248;2023-05-07T07:48:48;101329.91;;;13.86;58.72
63306;BME280;50735;52.060;1.248;2023-05-07T07:51:19;101330.41;;;13.79;58.58
63306;BME280;50735;52.060;1.248;2023-05-07T07:53:51;101334.19;;;13.74;58.45
63306;BME280;50735;52.060;1.248;2023-05-07T07:56:22;101338.42;;;13.68;58.34
63306;BME280;50735;52.060;1.248;2023-05-07T07:58:54;101339.46;;;13.64;58.62
63306;BME280;50735;52.060;1.248;2023-05-07T08:01:26;101337.55;;;13.55;58.19
63306;BME280;50735;52.060;1.248;2023-05-07T08:03:58;101337.72;;;13.31;57.87
63306;BME280;50735;52.060;1.248;2023-05-07T08:06:29;101335.99;;;13.61;58.50
63306;BME280;50735;52.060;1.248;2023-05-07T08:09:01;101331.64;;;13.70;57.65
63306;BME280;50735;52.060;1.248;2023-05-07T08:11:33;101337.25;;;14.18;57.59
63306;BME280;50735;52.060;1.248;2023-05-07T08:14:04;101341.70;;;13.94;56.24
63306;BME280;50735;52.060;1.248;2023-05-07T08:16:37;101342.72;;;13.97;56.51
63306;BME280;50735;52.060;1.248;2023-05-07T08:19:08;101346.49;;;14.08;56.38
63306;BME280;50735;52.060;1.248;2023-05-07T08:21:40;101350.84;;;14.26;56.72
63306;BME280;50735;52.060;1.248;2023-05-07T08:24:12;101353.84;;;14.64;55.80
63306;BME280;50735;52.060;1.248;2023-05-07T08:26:44;101358.37;;;14.29;55.19
63306;BME280;50735;52.060;1.248;2023-05-07T08:29:16;101360.12;;;13.92;55.54
63306;BME280;50735;52.060;1.248;2023-05-07T08:31:47;101362.35;;;13.98;55.86
63306;BME280;50735;52.060;1.248;2023-05-07T08:34:19;101364.51;;;14.05;56.09
63306;BME280;50735;52.060;1.248;2023-05-07T08:36:51;101368.04;;;14.01;56.12
63306;BME280;50735;52.060;1.248;2023-05-07T08:39:23;101370.76;;;14.18;56.36
63306;BME280;50735;52.060;1.248;2023-05-07T08:41:55;101371.71;;;14.12;55.80
63306;BME280;50735;52.060;1.248;2023-05-07T08:44:28;101369.51;;;14.11;56.13
63306;BME280;50735;52.060;1.248;2023-05-07T08:47:07;101371.75;;;14.20;56.09
63306;BME280;50735;52.060;1.248;2023-05-07T08:49:38;101375.47;;;14.27;56.24
63306;BME280;50735;52.060;1.248;2023-05-07T08:52:11;101375.48;;;14.19;56.44
63306;BME280;50735;52.060;1.248;2023-05-07T08:54:43;101377.85;;;14.14;56.24
63306;BME280;50735;52.060;1.248;2023-05-07T08:57:15;101385.06;;;14.12;56.41
63306;BME280;50735;52.060;1.248;2023-05-07T08:59:48;101385.82;;;14.02;55.96
63306;BME280;50735;52.060;1.248;2023-05-07T09:02:20;101385.67;;;14.10;55.78
63306;BME280;50735;52.060;1.248;2023-05-07T09:04:51;101383.06;;;13.87;56.30
63306;BME280;50735;52.060;1.248;2023-05-07T09:07:25;101383.71;;;14.12;56.16
63306;BME280;50735;52.060;1.248;2023-05-07T09:09:56;101383.05;;;14.17;55.27
63306;BME280;50735;52.060;1.248;2023-05-07T09:12:28;101388.88;;;14.29;54.85
63306;BME280;50735;52.060;1.248;2023-05-07T09:14:59;101391.81;;;14.70;54.79
63306;BME280;50735;52.060;1.248;2023-05-07T09:17:31;101388.67;;;14.78;54.57
63306;BME280;50735;52.060;1.248;2023-05-07T09:20:04;101384.35;;;14.92;53.17
63306;BME280;50735;52.060;1.248;2023-05-07T09:22:37;101382.12;;;14.88;53.35
63306;BME280;50735;52.060;1.248;2023-05-07T09:25:09;101387.79;;;14.72;52.89
63306;BME280;50735;52.060;1.248;2023-05-07T09:27:41;101392.85;;;14.89;53.40
63306;BME280;50735;52.060;1.248;2023-05-07T09:30:13;101397.07;;;14.87;52.76
63306;BME280;50735;52.060;1.248;2023-05-07T09:32:45;101399.30;;;15.11;52.92
63306;BME280;50735;52.060;1.248;2023-05-07T09:35:17;101401.88;;;15.50;53.11
63306;BME280;50735;52.060;1.248;2023-05-07T09:37:50;101394.58;;;15.58;52.20
63306;BME280;50735;52.060;1.248;2023-05-07T09:40:23;101391.61;;;15.61;51.91
63306;BME280;50735;52.060;1.248;2023-05-07T09:42:55;101392.03;;;15.62;51.55
63306;BME280;50735;52.060;1.248;2023-05-07T09:45:28;101398.86;;;15.58;52.24
63306;BME280;50735;52.060;1.248;2023-05-07T09:48:00;101402.64;;;15.71;51.62
63306;BME280;50735;52.060;1.248;2023-05-07T09:50:36;101404.91;;;15.66;51.27
63306;BME280;50735;52.060;1.248;2023-05-07T09:53:13;101406.96;;;15.23;53.11
63306;BME280;50735;52.060;1.248;2023-05-07T09:55:46;101405.47;;;15.64;51.73
63306;BME280;50735;52.060;1.248;2023-05-07T09:58:18;101410.96;;;15.51;50.70
63306;BME280;50735;52.060;1.248;2023-05-07T10:00:51;101415.89;;;15.54;50.36
63306;BME280;50735;52.060;1.248;2023-05-07T10:03:27;101416.23;;;15.67;50.58
63306;BME280;50735;52.060;1.248;2023-05-07T10:05:59;101420.75;;;15.98;49.65
63306;BME280;50735;52.060;1.248;2023-05-07T10:08:32;101423.93;;;16.14;49.87
63306;BME280;50735;52.060;1.248;2023-05-07T10:11:04;101430.51;;;16.27;49.77
63306;BME280;50735;52.060;1.248;2023-05-07T10:13:37;101432.68;;;16.25;49.83
63306;BME280;50735;52.060;1.248;2023-05-07T10:16:09;101432.80;;;16.20;49.51
63306;BME280;50735;52.060;1.248;2023-05-07T10:18:41;101435.52;;;16.07;48.85
63306;BME280;50735;52.060;1.248;2023-05-07T10:21:16;101437.22;;;16.15;49.41
63306;BME280;50735;52.060;1.248;2023-05-07T10:23:51;101437.00;;;16.46;50.15
63306;BME280;50735;52.060;1.248;2023-05-07T10:26:25;101439.06;;;16.57;49.38
63306;BME280;50735;52.060;1.248;2023-05-07T10:29:03;101441.32;;;16.59;49.74
63306;BME280;50735;52.060;1.248;2023-05-07T10:31:50;101446.26;;;16.82;48.84
63306;BME280;50735;52.060;1.248;2023-05-07T10:34:28;101448.36;;;16.68;49.13
63306;BME280;50735;52.060;1.248;2023-05-07T10:37:02;101452.94;;;16.21;49.00
63306;BME280;50735;52.060;1.248;2023-05-07T10:39:35;101458.43;;;16.32;49.33
63306;BME280;50735;52.060;1.248;2023-05-07T10:42:08;101460.15;;;16.32;49.66
63306;BME280;50735;52.060;1.248;2023-05-07T10:44:40;101460.87;;;16.58;50.16
63306;BME280;50735;52.060;1.248;2023-05-07T10:47:13;101460.92;;;16.38;49.23
63306;BME280;50735;52.060;1.248;2023-05-07T10:51:18;101463.30;;;16.25;49.53
63306;BME280;50735;52.060;1.248;2023-05-07T10:54:18;101467.82;;;16.31;50.47
63306;BME280;50735;52.060;1.248;2023-05-07T10:56:50;101471.42;;;16.10;50.21
63306;BME280;50735;52.060;1.248;2023-05-07T10:59:35;101470.79;;;16.12;49.94
63306;BME280;50735;52.060;1.248;2023-05-07T11:02:07;101470.69;;;16.01;50.11
63306;BME280;50735;52.060;1.248;2023-05-07T11:04:39;101470.17;;;16.45;50.10
63306;BME280;50735;52.060;1.248;2023-05-07T11:07:24;101469.91;;;16.60;49.52
63306;BME280;50735;52.060;1.248;2023-05-07T11:10:00;101476.70;;;16.34;49.31
63306;BME280;50735;52.060;1.248;2023-05-07T11:13:04;101480.05;;;16.53;49.75
63306;BME280;50735;52.060;1.248;2023-05-07T11:15:39;101482.14;;;16.41;50.65
63306;BME280;50735;52.060;1.248;2023-05-07T11:18:13;101481.01;;;16.53;49.38
63306;BME280;50735;52.060;1.248;2023-05-07T11:20:48;101486.82;;;16.29;49.26
63306;BME280;50735;52.060;1.248;2023-05-07T11:24:01;101481.48;;;16.32;48.57
63306;BME280;50735;52.060;1.248;2023-05-07T11:26:43;101484.30;;;16.69;49.04
63306;BME280;50735;52.060;1.248;2023-05-07T11:29:16;101482.76;;;16.92;49.24
63306;BME280;50735;52.060;1.248;2023-05-07T11:31:49;101476.49;;;16.89;49.07
63306;BME280;50735;52.060;1.248;2023-05-07T11:34:22;101475.85;;;17.28;48.41
63306;BME280;50735;52.060;1.248;2023-05-07T11:36:55;101473.00;;;17.77;48.68
63306;BME280;50735;52.060;1.248;2023-05-07T11:39:29;101470.57;;;17.64;47.83
63306;BME280;50735;52.060;1.248;2023-05-07T11:42:02;101473.68;;;17.69;47.05
63306;BME280;50735;52.060;1.248;2023-05-07T11:44:42;101472.54;;;17.78;47.04
63306;BME280;50735;52.060;1.248;2023-05-07T11:47:17;101472.77;;;17.83;46.05
63306;BME280;50735;52.060;1.248;2023-05-07T11:49:50;101476.06;;;17.98;47.22
63306;BME280;50735;52.060;1.248;2023-05-07T11:52:24;101477.47;;;18.11;47.36
63306;BME280;50735;52.060;1.248;2023-05-07T11:54:57;101475.33;;;18.40;47.29
63306;BME280;50735;52.060;1.248;2023-05-07T11:57:29;101475.88;;;18.30;45.70
63306;BME280;50735;52.060;1.248;2023-05-07T12:00:03;101474.51;;;18.31;45.92
63306;BME280;50735;52.060;1.248;2023-05-07T12:02:35;101473.79;;;18.30;46.52
63306;BME280;50735;52.060;1.248;2023-05-07T12:05:07;101473.21;;;18.24;46.90
63306;BME280;50735;52.060;1.248;2023-05-07T12:07:39;101474.00;;;18.24;46.05
63306;BME280;50735;52.060;1.248;2023-05-07T12:10:11;101475.11;;;17.98;46.34
63306;BME280;50735;52.060;1.248;2023-05-07T12:12:46;101476.38;;;18.29;46.89
63306;BME280;50735;52.060;1.248;2023-05-07T12:15:17;101472.04;;;18.67;47.63
63306;BME280;50735;52.060;1.248;2023-05-07T12:17:49;101474.85;;;19.04;46.37
63306;BME280;50735;52.060;1.248;2023-05-07T12:20:21;101473.84;;;19.53;43.91
63306;BME280;50735;52.060;1.248;2023-05-07T12:22:54;101477.98;;;19.95;43.13
63306;BME280;50735;52.060;1.248;2023-05-07T12:25:26;101477.69;;;20.75;42.41
63306;BME280;50735;52.060;1.248;2023-05-07T12:28:00;101481.14;;;20.70;41.43
63306;BME280;50735;52.060;1.248;2023-05-07T12:30:32;101483.24;;;21.11;41.77
63306;BME280;50735;52.060;1.248;2023-05-07T12:33:09;101485.38;;;21.24;41.91
63306;BME280;50735;52.060;1.248;2023-05-07T12:35:42;101485.93;;;21.55;40.28
63306;BME280;50735;52.060;1.248;2023-05-07T12:38:16;101479.80;;;21.62;39.33
63306;BME280;50735;52.060;1.248;2023-05-07T12:40:49;101487.19;;;20.97;39.60
63306;BME280;50735;52.060;1.248;2023-05-07T12:43:25;101489.64;;;21.13;40.73
63306;BME280;50735;52.060;1.248;2023-05-07T12:46:00;101493.89;;;20.71;39.75
63306;BME280;50735;52.060;1.248;2023-05-07T12:48:33;101493.57;;;20.32;40.51
63306;BME280;50735;52.060;1.248;2023-05-07T12:51:05;101495.06;;;20.08;41.05
63306;BME280;50735;52.060;1.248;2023-05-07T12:53:40;101491.42;;;20.08;41.25
63306;BME280;50735;52.060;1.248;2023-05-07T12:56:12;101485.60;;;20.31;41.86
63306;BME280;50735;52.060;1.248;2023-05-07T12:58:48;101486.42;;;20.68;41.27
63306;BME280;50735;52.060;1.248;2023-05-07T13:01:20;101485.72;;;21.00;41.17
63306;BME280;50735;52.060;1.248;2023-05-07T13:03:52;101487.25;;;21.27;40.70
63306;BME280;50735;52.060;1.248;2023-05-07T13:06:23;101487.50;;;21.07;40.40
63306;BME280;50735;52.060;1.248;2023-05-07T13:08:55;101480.84;;;21.23;41.07
63306;BME280;50735;52.060;1.248;2023-05-07T13:11:27;101477.45;;;21.35;40.33
63306;BME280;50735;52.060;1.248;2023-05-07T13:13:59;101475.74;;;21.42;40.36
63306;BME280;50735;52.060;1.248;2023-05-07T13:16:30;101478.48;;;21.10;40.52
63306;BME280;50735;52.060;1.248;2023-05-07T13:19:02;101481.44;;;21.06;40.77
63306;BME280;50735;52.060;1.248;2023-05-07T13:21:34;101480.57;;;21.27;41.13